createdAt,value
2023-04-19T00:00:08.282Z,13.29
2023-04-19T00:02:36.159Z,13.30
2023-04-19T00:05:02.974Z,13.29
2023-04-19T00:07:29.473Z,13.29
2023-04-19T00:09:55.874Z,13.27
2023-04-19T00:12:22.257Z,13.28
2023-04-19T00:14:48.738Z,13.25
2023-04-19T00:17:15.391Z,13.25
2023-04-19T00:19:41.948Z,13.23
2023-04-19T00:22:08.478Z,13.23
2023-04-19T00:24:34.844Z,13.21
2023-04-19T00:27:02.312Z,13.15
2023-04-19T00:29:28.823Z,13.13
2023-04-19T00:31:55.277Z,13.12
2023-04-19T00:34:21.676Z,13.09
2023-04-19T00:36:48.118Z,13.06
2023-04-19T00:39:15.518Z,13.01
2023-04-19T00:41:41.905Z,12.94
2023-04-19T00:44:08.305Z,12.92
2023-04-19T00:46:36.408Z,12.89
2023-04-19T00:49:03.081Z,12.84
2023-04-19T00:51:29.801Z,12.80
2023-04-19T00:53:56.843Z,12.77
2023-04-19T00:56:25.052Z,12.74
2023-04-19T00:58:51.561Z,12.68
2023-04-19T01:01:18.538Z,12.62
2023-04-19T01:03:47.216Z,12.55
2023-04-19T01:06:14.668Z,12.51
2023-04-19T01:08:41.074Z,12.41
2023-04-19T01:11:10.370Z,12.36
2023-04-19T01:13:36.960Z,12.31
2023-04-19T01:16:03.560Z,12.26
2023-04-19T01:18:35.638Z,12.25
2023-04-19T01:21:02.090Z,12.24
2023-04-19T01:23:28.533Z,12.24
2023-04-19T01:25:54.979Z,12.25
2023-04-19T01:28:21.403Z,12.24
2023-04-19T01:30:50.888Z,12.23
2023-04-19T01:33:17.418Z,12.20
2023-04-19T01:35:43.813Z,12.19
2023-04-19T01:38:10.244Z,12.16
2023-04-19T01:40:36.639Z,12.13
2023-04-19T01:43:03.049Z,12.11
2023-04-19T01:45:29.499Z,12.07
2023-04-19T01:47:56.607Z,12.04
2023-04-19T01:50:23.240Z,11.99
2023-04-19T01:52:49.666Z,11.94
2023-04-19T01:55:16.187Z,11.88
2023-04-19T01:57:42.577Z,11.85
2023-04-19T02:00:10.511Z,11.81
2023-04-19T02:02:38.476Z,11.73
2023-04-19T02:05:06.537Z,11.62
2023-04-19T02:07:32.935Z,11.55
2023-04-19T02:10:00.195Z,11.44
2023-04-19T02:12:28.876Z,11.36
2023-04-19T02:14:59.433Z,11.29
2023-04-19T02:17:26.530Z,11.17
2023-04-19T02:19:53.034Z,11.07
2023-04-19T02:22:19.794Z,10.97
2023-04-19T02:24:47.596Z,10.86
2023-04-19T02:27:14.095Z,10.76
2023-04-19T02:29:41.194Z,10.65
2023-04-19T02:32:07.795Z,10.56
2023-04-19T02:34:34.670Z,10.46
2023-04-19T02:37:01.825Z,10.36
2023-04-19T02:39:28.204Z,10.25
2023-04-19T02:41:56.102Z,10.16
2023-04-19T02:44:22.643Z,10.10
2023-04-19T02:46:52.494Z,10.03
2023-04-19T02:49:20.240Z,9.97
2023-04-19T02:51:47.730Z,9.91
2023-04-19T02:54:14.588Z,9.83
2023-04-19T02:56:41.284Z,9.78
2023-04-19T02:59:07.712Z,9.73
2023-04-19T03:01:34.107Z,9.71
2023-04-19T03:04:00.728Z,9.65
2023-04-19T03:06:27.303Z,9.61
2023-04-19T03:08:53.699Z,9.55
2023-04-19T03:11:21.084Z,9.51
2023-04-19T03:13:47.508Z,9.48
2023-04-19T03:16:14.001Z,9.43
2023-04-19T03:18:40.642Z,9.36
2023-04-19T03:21:09.448Z,9.35
2023-04-19T03:23:35.868Z,9.31
2023-04-19T03:26:02.291Z,9.26
2023-04-19T03:28:28.714Z,9.25
2023-04-19T03:30:55.304Z,9.23
2023-04-19T03:33:21.779Z,9.20
2023-04-19T03:35:48.207Z,9.19
2023-04-19T03:38:14.640Z,9.18
2023-04-19T03:40:41.089Z,9.19
2023-04-19T03:43:07.534Z,9.20
2023-04-19T03:45:34.117Z,9.17
2023-04-19T03:48:02.752Z,9.13
2023-04-19T03:50:29.592Z,9.11
2023-04-19T03:52:56.035Z,9.09
2023-04-19T03:55:22.515Z,9.09
2023-04-19T03:57:48.955Z,9.05
2023-04-19T04:00:16.589Z,9.04
2023-04-19T04:02:43.102Z,9.03
2023-04-19T04:05:09.901Z,9.03
2023-04-19T04:07:36.484Z,9.02
2023-04-19T04:10:03.034Z,8.98
2023-04-19T04:12:29.504Z,8.97
2023-04-19T04:14:55.994Z,8.95
2023-04-19T04:17:24.176Z,8.93
2023-04-19T04:19:50.666Z,8.89
2023-04-19T04:22:17.229Z,8.87
2023-04-19T04:24:44.076Z,8.84
2023-04-19T04:27:11.107Z,8.82
2023-04-19T04:29:38.306Z,8.77
2023-04-19T04:32:08.622Z,8.74
2023-04-19T04:34:36.648Z,8.69
2023-04-19T04:37:04.010Z,8.66
2023-04-19T04:39:30.585Z,8.62
2023-04-19T04:41:59.636Z,8.62
2023-04-19T04:44:26.252Z,8.58
2023-04-19T04:46:52.767Z,8.56
2023-04-19T04:49:19.243Z,8.55
2023-04-19T04:51:45.815Z,8.54
2023-04-19T04:54:12.262Z,8.54
2023-04-19T04:56:38.693Z,8.54
2023-04-19T04:59:05.673Z,8.56
2023-04-19T05:01:32.145Z,8.58
2023-04-19T05:03:58.852Z,8.59
2023-04-19T05:06:26.512Z,8.59
2023-04-19T05:08:53.016Z,8.58
2023-04-19T05:11:20.373Z,8.59
2023-04-19T05:13:46.804Z,8.60
2023-04-19T05:16:13.261Z,8.63
2023-04-19T05:18:39.706Z,8.66
2023-04-19T05:21:08.188Z,8.71
2023-04-19T05:23:34.700Z,8.74
2023-04-19T05:26:01.111Z,8.78
2023-04-19T05:28:27.565Z,8.83
2023-04-19T05:30:54.093Z,8.88
2023-04-19T05:33:20.635Z,8.94
2023-04-19T05:35:47.080Z,9.01
2023-04-19T05:38:13.558Z,9.10
2023-04-19T05:40:40.264Z,9.15
2023-04-19T05:43:06.768Z,9.22
2023-04-19T05:45:33.151Z,9.28
2023-04-19T05:47:59.590Z,9.33
2023-04-19T05:50:26.056Z,9.38
2023-04-19T05:52:52.516Z,9.43
2023-04-19T05:55:18.995Z,9.49
2023-04-19T05:57:45.415Z,9.53
2023-04-19T06:00:12.576Z,9.56
2023-04-19T06:02:39.122Z,9.60
2023-04-19T06:05:09.918Z,9.63
2023-04-19T06:07:46.903Z,9.65
2023-04-19T06:10:20.665Z,9.70
2023-04-19T06:12:47.099Z,9.74
2023-04-19T06:15:13.568Z,9.79
2023-04-19T06:17:40.052Z,9.85
2023-04-19T06:20:08.291Z,9.92
2023-04-19T06:22:34.752Z,9.98
2023-04-19T06:25:01.442Z,10.07
2023-04-19T06:27:27.893Z,10.13
2023-04-19T06:29:54.394Z,10.19
2023-04-19T06:32:20.804Z,10.27
2023-04-19T06:34:47.261Z,10.35
2023-04-19T06:37:13.679Z,10.43
2023-04-19T06:39:40.125Z,10.51
2023-04-19T06:42:07.005Z,10.57
2023-04-19T06:44:33.485Z,10.62
2023-04-19T06:46:59.906Z,10.70
2023-04-19T06:49:26.381Z,10.75
2023-04-19T06:51:53.418Z,10.81
2023-04-19T06:54:20.104Z,10.86
2023-04-19T06:56:48.555Z,10.94
2023-04-19T06:59:19.037Z,11.00
2023-04-19T07:01:46.308Z,11.05
2023-04-19T07:04:14.053Z,11.11
2023-04-19T07:06:40.693Z,11.09
2023-04-19T07:09:08.449Z,11.18
2023-04-19T07:11:34.980Z,11.22
2023-04-19T07:14:01.540Z,11.30
2023-04-19T07:16:28.803Z,11.39
2023-04-19T07:18:55.541Z,11.51
2023-04-19T07:21:22.006Z,11.63
2023-04-19T07:23:48.449Z,11.67
2023-04-19T07:26:15.041Z,11.79
2023-04-19T07:28:41.528Z,11.84
2023-04-19T07:31:08.013Z,11.91
2023-04-19T07:33:34.895Z,12.04
2023-04-19T07:36:01.635Z,12.19
2023-04-19T07:38:28.224Z,12.38
2023-04-19T07:40:54.669Z,12.53
2023-04-19T07:43:21.226Z,12.67
2023-04-19T07:45:47.661Z,12.79
2023-04-19T07:48:14.053Z,12.92
2023-04-19T07:50:40.475Z,13.02
2023-04-19T07:53:06.875Z,13.13
2023-04-19T07:55:33.400Z,13.25
2023-04-19T07:58:01.222Z,13.36
2023-04-19T08:00:29.822Z,13.46
2023-04-19T08:02:59.959Z,13.51
2023-04-19T08:05:27.353Z,13.53
2023-04-19T08:07:53.969Z,13.57
2023-04-19T08:10:22.199Z,13.57
2023-04-19T08:13:04.476Z,13.53
2023-04-19T08:18:04.993Z,13.60
2023-04-19T08:20:32.528Z,13.65
2023-04-19T08:23:04.598Z,13.67
2023-04-19T08:25:37.394Z,13.73
2023-04-19T08:28:04.778Z,13.80
2023-04-19T08:30:31.794Z,13.83
2023-04-19T08:32:58.344Z,13.90
2023-04-19T08:35:25.391Z,13.99
2023-04-19T08:37:51.892Z,14.11
2023-04-19T08:40:18.824Z,14.21
2023-04-19T08:42:45.317Z,14.35
2023-04-19T08:45:27.110Z,14.45
2023-04-19T08:48:01.365Z,14.53
2023-04-19T08:53:12.175Z,14.63
2023-04-19T08:56:03.350Z,14.72
2023-04-19T08:58:52.146Z,14.79
2023-04-19T09:01:33.171Z,14.86
2023-04-19T09:04:16.927Z,14.95
2023-04-19T09:06:49.010Z,14.96
2023-04-19T09:09:34.749Z,15.04
2023-04-19T09:12:17.655Z,15.03
2023-04-19T09:14:57.832Z,15.11
2023-04-19T09:17:26.807Z,15.19
2023-04-19T09:19:53.216Z,15.26
2023-04-19T09:22:19.732Z,15.35
2023-04-19T09:25:22.753Z,15.46
2023-04-19T09:27:36.263Z,15.53
2023-04-19T09:30:04.676Z,15.62
2023-04-19T09:32:46.772Z,15.70
2023-04-19T09:35:13.383Z,15.74
2023-04-19T09:38:01.735Z,15.80
2023-04-19T09:40:28.438Z,15.95
2023-04-19T09:48:07.097Z,16.16
2023-04-19T09:50:42.367Z,16.21
2023-04-19T09:53:18.292Z,16.19
2023-04-19T09:55:57.703Z,16.23
2023-04-19T09:58:34.343Z,16.26
2023-04-19T10:03:35.438Z,16.50
2023-04-19T10:06:14.124Z,16.71
2023-04-19T10:08:49.804Z,16.89
2023-04-19T10:11:17.447Z,16.89
2023-04-19T10:13:46.806Z,16.94
2023-04-19T10:16:19.346Z,16.96
2023-04-19T10:18:50.006Z,17.15
2023-04-19T10:21:17.234Z,17.38
2023-04-19T10:23:43.810Z,17.64
2023-04-19T10:26:10.335Z,17.98
2023-04-19T10:28:37.967Z,18.37
2023-04-19T10:31:05.405Z,18.48
2023-04-19T10:33:36.466Z,18.66
2023-04-19T10:36:03.884Z,18.74
2023-04-19T10:38:43.203Z,18.92
2023-04-19T10:41:16.935Z,18.96
2023-04-19T10:43:48.129Z,19.25
2023-04-19T10:46:16.465Z,19.32
2023-04-19T10:48:58.037Z,19.20
2023-04-19T10:51:29.695Z,19.24
2023-04-19T10:54:00.165Z,19.39
2023-04-19T10:56:32.728Z,19.48
2023-04-19T10:59:02.557Z,19.51
2023-04-19T11:01:40.849Z,19.38
2023-04-19T11:04:08.909Z,19.37
2023-04-19T11:06:37.142Z,19.29
2023-04-19T11:09:05.670Z,19.38
2023-04-19T11:11:36.378Z,19.46
2023-04-19T11:14:08.540Z,19.57
2023-04-19T11:16:45.405Z,19.75
2023-04-19T11:19:16.680Z,19.94
2023-04-19T11:21:46.585Z,20.05
2023-04-19T11:24:13.354Z,20.08
2023-04-19T11:26:43.347Z,20.15
2023-04-19T11:29:10.375Z,20.21
2023-04-19T11:31:36.953Z,20.27
2023-04-19T11:34:03.669Z,20.33
2023-04-19T11:36:32.254Z,20.40
2023-04-19T11:38:58.722Z,20.36
2023-04-19T11:41:25.220Z,20.46
2023-04-19T11:43:52.052Z,20.59
2023-04-19T11:46:18.602Z,20.68
2023-04-19T11:48:53.183Z,20.64
2023-04-19T11:51:20.342Z,20.76
2023-04-19T11:53:47.160Z,20.91
2023-04-19T11:56:15.590Z,21.05
2023-04-19T11:58:49.827Z,21.22
2023-04-19T12:01:20.359Z,21.24
2023-04-19T12:03:48.414Z,21.34
2023-04-19T12:06:19.295Z,21.33
2023-04-19T12:08:47.745Z,21.32
2023-04-19T12:11:15.368Z,21.50
2023-04-19T12:13:44.209Z,21.44
2023-04-19T12:16:11.933Z,21.46
2023-04-19T12:18:50.299Z,21.48
2023-04-19T12:21:32.409Z,21.54
2023-04-19T12:24:00.925Z,21.62
2023-04-19T12:26:28.924Z,21.49
2023-04-19T12:28:56.793Z,21.47
2023-04-19T12:31:23.297Z,21.45
2023-04-19T12:33:50.614Z,21.42
2023-04-19T12:36:17.114Z,21.50
2023-04-19T12:38:44.016Z,21.61
2023-04-19T12:41:11.069Z,21.71
2023-04-19T12:43:37.599Z,21.72
2023-04-19T12:46:05.201Z,21.94
2023-04-19T12:48:31.744Z,22.21
2023-04-19T12:50:58.178Z,22.40
2023-04-19T12:53:25.259Z,22.49
2023-04-19T12:55:51.690Z,22.61
2023-04-19T12:58:18.704Z,22.64
2023-04-19T13:00:45.403Z,22.60
2023-04-19T13:03:12.703Z,22.59
2023-04-19T13:05:39.268Z,22.49
2023-04-19T13:08:06.105Z,22.12
2023-04-19T13:10:32.617Z,22.15
2023-04-19T13:13:00.687Z,22.07
2023-04-19T13:15:28.601Z,22.15
2023-04-19T13:17:55.288Z,22.33
2023-04-19T13:20:21.785Z,22.38
2023-04-19T13:22:48.219Z,22.36
2023-04-19T13:25:14.684Z,22.29
2023-04-19T13:27:41.110Z,22.07
2023-04-19T13:30:08.307Z,22.16
2023-04-19T13:32:34.731Z,22.37
2023-04-19T13:35:01.178Z,22.30
2023-04-19T13:37:27.636Z,22.36
2023-04-19T13:40:01.117Z,22.48
2023-04-19T13:42:33.689Z,22.53
2023-04-19T13:45:00.118Z,22.47
2023-04-19T13:47:26.765Z,22.39
2023-04-19T13:49:53.239Z,22.28
2023-04-19T13:52:19.943Z,22.38
2023-04-19T13:54:46.465Z,22.44
2023-04-19T13:57:12.896Z,22.26
2023-04-19T13:59:39.265Z,22.46
2023-04-19T14:02:05.803Z,22.59
2023-04-19T14:04:33.113Z,22.69
2023-04-19T14:06:59.549Z,22.76
2023-04-19T14:09:26.043Z,23.04
2023-04-19T14:11:52.485Z,23.21
2023-04-19T14:14:19.014Z,22.94
2023-04-19T14:16:45.802Z,23.00
2023-04-19T14:19:12.303Z,22.97
2023-04-19T14:21:38.812Z,22.93
2023-04-19T14:24:05.873Z,22.98
2023-04-19T14:26:32.271Z,23.23
2023-04-19T14:28:58.723Z,22.97
2023-04-19T14:31:25.211Z,22.97
2023-04-19T14:33:52.126Z,23.02
2023-04-19T14:36:18.489Z,23.03
2023-04-19T14:38:44.899Z,23.20
2023-04-19T14:41:11.290Z,23.39
2023-04-19T14:43:37.668Z,23.52
2023-04-19T14:46:04.134Z,23.70
2023-04-19T14:48:30.686Z,23.83
2023-04-19T14:50:57.090Z,23.92
2023-04-19T14:53:23.707Z,23.68
2023-04-19T14:55:50.103Z,23.69
2023-04-19T14:58:16.538Z,23.94
2023-04-19T15:00:44.413Z,24.00
2023-04-19T15:03:10.989Z,24.15
2023-04-19T15:05:37.747Z,24.18
2023-04-19T15:08:04.440Z,24.24
2023-04-19T15:10:30.970Z,23.89
2023-04-19T15:12:58.039Z,23.77
2023-04-19T15:15:24.473Z,23.50
2023-04-19T15:17:51.217Z,23.52
2023-04-19T15:20:17.727Z,23.26
2023-04-19T15:22:44.134Z,23.39
2023-04-19T15:25:10.676Z,23.28
2023-04-19T15:27:37.269Z,23.00
2023-04-19T15:30:04.790Z,23.24
2023-04-19T15:32:34.207Z,23.24
2023-04-19T15:35:00.739Z,23.21
2023-04-19T15:37:27.528Z,22.96
2023-04-19T15:39:53.965Z,23.09
2023-04-19T15:42:20.337Z,23.28
2023-04-19T15:44:46.752Z,23.13
2023-04-19T15:47:13.218Z,22.94
2023-04-19T15:49:40.673Z,22.98
2023-04-19T15:52:08.685Z,23.04
2023-04-19T15:54:37.631Z,23.25
2023-04-19T15:57:04.061Z,23.55
2023-04-19T15:59:31.523Z,23.50
2023-04-19T16:01:58.191Z,23.60
2023-04-19T16:04:24.848Z,23.30
2023-04-19T16:06:51.821Z,22.85
2023-04-19T16:09:19.342Z,22.48
2023-04-19T16:11:45.870Z,22.10
2023-04-19T16:14:12.313Z,21.62
2023-04-19T16:16:38.727Z,21.13
2023-04-19T16:19:05.190Z,20.65
2023-04-19T16:21:31.827Z,20.74
2023-04-19T16:23:58.489Z,21.02
2023-04-19T16:26:24.923Z,21.22
2023-04-19T16:28:51.407Z,21.34
2023-04-19T16:31:18.168Z,21.47
2023-04-19T16:33:44.779Z,21.32
2023-04-19T16:36:11.307Z,21.00
2023-04-19T16:38:37.737Z,20.62
2023-04-19T16:41:05.831Z,20.31
2023-04-19T16:43:32.583Z,20.10
2023-04-19T16:45:59.061Z,19.78
2023-04-19T16:48:26.192Z,19.51
2023-04-19T16:50:52.605Z,19.31
2023-04-19T16:53:19.693Z,18.92
2023-04-19T16:55:46.188Z,18.67
2023-04-19T16:58:12.558Z,18.46
2023-04-19T17:00:38.975Z,18.19
2023-04-19T17:03:06.006Z,17.93
2023-04-19T17:05:32.477Z,17.77
2023-04-19T17:07:58.869Z,17.67
2023-04-19T17:10:26.938Z,17.58
2023-04-19T17:12:55.749Z,17.37
2023-04-19T17:15:22.286Z,17.41
2023-04-19T17:17:48.739Z,17.48
2023-04-19T17:20:15.378Z,17.38
2023-04-19T17:22:41.818Z,17.57
2023-04-19T17:25:08.566Z,17.70
2023-04-19T17:27:34.978Z,17.84
2023-04-19T17:30:01.439Z,17.92
2023-04-19T17:32:27.882Z,17.95
2023-04-19T17:34:54.357Z,18.06
2023-04-19T17:37:20.931Z,18.12
2023-04-19T17:39:47.340Z,18.14
2023-04-19T17:42:13.853Z,18.28
2023-04-19T17:44:40.313Z,18.40
2023-04-19T17:47:06.858Z,18.44
2023-04-19T17:49:33.276Z,18.51
2023-04-19T17:51:59.645Z,18.39
2023-04-19T17:54:26.085Z,18.41
2023-04-19T17:56:52.829Z,18.20
2023-04-19T17:59:19.492Z,17.96
2023-04-19T18:01:46.097Z,17.73
2023-04-19T18:04:17.195Z,17.47
2023-04-19T18:06:43.870Z,17.21
2023-04-19T18:09:10.354Z,16.93
2023-04-19T18:11:36.792Z,16.69
2023-04-19T18:14:03.182Z,16.48
2023-04-19T18:16:29.619Z,16.36
2023-04-19T18:18:56.298Z,16.18
2023-04-19T18:21:22.764Z,16.03
2023-04-19T18:23:49.144Z,15.87
2023-04-19T18:26:15.566Z,15.71
2023-04-19T18:28:41.980Z,15.55
2023-04-19T18:31:09.549Z,15.45
2023-04-19T18:33:36.485Z,15.36
2023-04-19T18:36:04.670Z,15.26
2023-04-19T18:38:31.500Z,15.17
2023-04-19T18:40:58.764Z,15.07
2023-04-19T18:43:26.148Z,14.98
2023-04-19T18:45:54.669Z,14.91
2023-04-19T18:48:22.448Z,14.81
2023-04-19T18:50:48.919Z,14.69
2023-04-19T18:53:15.336Z,14.61
2023-04-19T18:55:42.014Z,14.53
2023-04-19T18:58:08.868Z,14.42
2023-04-19T19:00:35.302Z,14.29
2023-04-19T19:03:03.401Z,14.18
2023-04-19T19:05:30.713Z,14.02
2023-04-19T19:07:57.553Z,13.83
2023-04-19T19:12:52.981Z,13.55
2023-04-19T19:15:19.579Z,13.39
2023-04-19T19:17:49.303Z,13.25
2023-04-19T19:20:16.776Z,13.09
2023-04-19T19:22:43.408Z,12.97
2023-04-19T19:25:11.767Z,12.86
2023-04-19T19:27:38.803Z,12.75
2023-04-19T19:30:07.944Z,12.66
2023-04-19T19:32:34.746Z,12.54
2023-04-19T19:35:06.216Z,12.43
2023-04-19T19:37:35.330Z,12.31
2023-04-19T19:40:05.139Z,12.19
2023-04-19T19:42:33.819Z,12.06
2023-04-19T19:45:00.495Z,11.97
2023-04-19T19:47:31.476Z,11.87
2023-04-19T19:52:28.358Z,11.66
2023-04-19T19:54:54.803Z,11.56
2023-04-19T19:58:14.300Z,11.47
2023-04-19T20:00:28.120Z,11.34
2023-04-19T20:02:58.861Z,11.21
2023-04-19T20:05:26.342Z,11.10
2023-04-19T20:08:05.699Z,11.00
2023-04-19T20:10:32.498Z,10.88
2023-04-19T20:12:58.950Z,10.77
2023-04-19T20:15:25.659Z,10.68
2023-04-19T20:17:52.209Z,10.61
2023-04-19T20:20:18.670Z,10.55
2023-04-19T20:22:45.372Z,10.49
2023-04-19T20:25:13.158Z,10.41
2023-04-19T20:27:39.681Z,10.36
2023-04-19T20:30:09.203Z,10.34
2023-04-19T20:32:42.050Z,10.32
2023-04-19T20:35:12.022Z,10.27
2023-04-19T20:37:42.690Z,10.23
2023-04-19T20:40:12.189Z,10.18
2023-04-19T20:42:38.779Z,10.12
2023-04-19T20:45:10.449Z,10.07
2023-04-19T20:47:38.327Z,9.97
2023-04-19T20:50:06.966Z,9.90
2023-04-19T20:52:34.144Z,9.79
2023-04-19T20:55:00.975Z,9.74
2023-04-19T20:57:27.549Z,9.70
2023-04-19T20:59:53.990Z,9.61
2023-04-19T21:02:20.458Z,9.53
2023-04-19T21:04:47.120Z,9.44
2023-04-19T21:07:13.679Z,9.35
2023-04-19T21:09:41.422Z,9.29
2023-04-19T21:12:07.875Z,9.22
2023-04-19T21:14:34.292Z,9.16
2023-04-19T21:17:02.104Z,9.10
2023-04-19T21:19:28.936Z,9.05
2023-04-19T21:21:55.747Z,9.01
2023-04-19T21:24:22.308Z,8.94
2023-04-19T21:26:48.824Z,8.87
2023-04-19T21:29:15.787Z,8.82
2023-04-19T21:31:42.564Z,8.75
2023-04-19T21:34:09.044Z,8.66
2023-04-19T21:36:35.485Z,8.61
2023-04-19T21:39:01.875Z,8.55
2023-04-19T21:41:28.270Z,8.50
2023-04-19T21:43:54.698Z,8.45
2023-04-19T21:46:21.301Z,8.38
2023-04-19T21:48:47.776Z,8.34
2023-04-19T21:51:14.279Z,8.28
2023-04-19T21:53:40.727Z,8.23
2023-04-19T21:56:07.359Z,8.19
2023-04-19T21:58:33.734Z,8.10
2023-04-19T22:01:00.212Z,8.06
2023-04-19T22:03:27.001Z,8.02
2023-04-19T22:05:53.517Z,7.98
2023-04-19T22:08:21.895Z,7.95
2023-04-19T22:10:50.452Z,7.93
2023-04-19T22:13:17.601Z,7.90
2023-04-19T22:15:44.075Z,7.84
2023-04-19T22:18:10.491Z,7.81
2023-04-19T22:20:38.377Z,7.77
2023-04-19T22:23:04.947Z,7.74
2023-04-19T22:25:31.362Z,7.72
2023-04-19T22:27:57.874Z,7.68
2023-04-19T22:30:24.449Z,7.63
2023-04-19T22:32:51.133Z,7.60
2023-04-19T22:35:17.646Z,7.58
2023-04-19T22:37:44.089Z,7.55
2023-04-19T22:40:11.050Z,7.49
2023-04-19T22:42:37.474Z,7.46
2023-04-19T22:45:04.330Z,7.41
2023-04-19T22:47:32.264Z,7.35
2023-04-19T22:49:58.860Z,7.31
2023-04-19T22:52:25.791Z,7.28
2023-04-19T22:54:52.268Z,7.24
2023-04-19T22:57:18.669Z,7.25
2023-04-19T22:59:45.020Z,7.24
2023-04-19T23:02:11.624Z,7.22
2023-04-19T23:04:38.209Z,7.18
2023-04-19T23:07:04.857Z,7.16
2023-04-19T23:09:31.290Z,7.14
2023-04-19T23:12:00.785Z,7.14
2023-04-19T23:14:28.349Z,7.10
2023-04-19T23:16:55.011Z,7.10
2023-04-19T23:19:22.780Z,7.10
2023-04-19T23:21:50.418Z,7.07
2023-04-19T23:24:17.570Z,7.03
2023-04-19T23:26:44.066Z,6.97
2023-04-19T23:29:10.532Z,6.92
2023-04-19T23:31:37.079Z,6.87
2023-04-19T23:34:03.582Z,6.81
2023-04-19T23:36:30.069Z,6.75
2023-04-19T23:38:56.545Z,6.71
2023-04-19T23:41:22.987Z,6.65
2023-04-19T23:43:49.400Z,6.62
2023-04-19T23:46:15.904Z,6.55
2023-04-19T23:48:42.464Z,6.49
2023-04-19T23:51:08.866Z,6.43
2023-04-19T23:53:35.289Z,6.38
2023-04-19T23:56:01.759Z,6.32
2023-04-19T23:58:28.163Z,6.28
